sensor_id;sensor_type;location;lat;lon;timestamp;pressure;altitude;pressure_sealevel;temperature;humidity
24440;BME280;12618;54.386;18.394;2023-08-08T14:18:59;98813.86;;;20.04;66.82
24440;BME280;12618;54.386;18.394;2023-08-08T14:21:32;98817.52;;;19.98;63.68
24440;BME280;12618;54.386;18.394;2023-08-08T14:24:03;98819.46;;;19.83;65.45
24440;BME280;12618;54.386;18.394;2023-08-08T14:26:35;98820.52;;;19.61;64.70
24440;BME280;12618;54.386;18.394;2023-08-08T14:29:07;98829.09;;;19.41;66.25
24440;BME280;12618;54.386;18.394;2023-08-08T14:31:39;98829.16;;;19.23;67.55
24440;BME280;12618;54.386;18.394;2023-08-08T14:34:33;98832.77;;;19.17;67.21
24440;BME280;12618;54.386;18.394;2023-08-08T14:37:06;98838.40;;;19.18;66.48
24440;BME280;12618;54.386;18.394;2023-08-08T14:39:37;98841.84;;;19.15;66.92
24440;BME280;12618;54.386;18.394;2023-08-08T14:42:09;98842.20;;;19.22;67.80
24440;BME280;12618;54.386;18.394;2023-08-08T14:44:41;98838.39;;;19.39;66.38
24440;BME280;12618;54.386;18.394;2023-08-08T14:47:13;98841.88;;;19.62;66.73
24440;BME280;12618;54.386;18.394;2023-08-08T14:49:44;98842.13;;;19.57;66.82
24440;BME280;12618;54.386;18.394;2023-08-08T14:52:16;98841.04;;;19.58;65.38
24440;BME280;12618;54.386;18.394;2023-08-08T14:54:48;98845.45;;;19.44;63.91
24440;BME280;12618;54.386;18.394;2023-08-08T14:57:20;98838.75;;;19.41;65.54
24440;BME280;12618;54.386;18.394;2023-08-08T14:59:52;98840.92;;;19.35;65.90
24440;BME280;12618;54.386;18.394;2023-08-08T15:02:23;98834.58;;;19.25;65.99
24440;BME280;12618;54.386;18.394;2023-08-08T15:04:56;98832.33;;;19.24;67.59
24440;BME280;12618;54.386;18.394;2023-08-08T15:07:28;98837.08;;;19.20;67.62
24440;BME280;12618;54.386;18.394;2023-08-08T15:10:02;98839.86;;;19.16;67.58
24440;BME280;12618;54.386;18.394;2023-08-08T15:12:33;98842.66;;;19.00;68.13
24440;BME280;12618;54.386;18.394;2023-08-08T15:15:05;98844.31;;;18.91;68.61
24440;BME280;12618;54.386;18.394;2023-08-08T15:17:37;98846.09;;;18.86;67.74
24440;BME280;12618;54.386;18.394;2023-08-08T15:20:09;98848.99;;;18.74;68.93
24440;BME280;12618;54.386;18.394;2023-08-08T15:22:42;98848.83;;;18.67;70.92
24440;BME280;12618;54.386;18.394;2023-08-08T15:25:14;98854.47;;;18.69;70.68
24440;BME280;12618;54.386;18.394;2023-08-08T15:27:45;98864.20;;;18.66;70.22
24440;BME280;12618;54.386;18.394;2023-08-08T15:30:17;98872.27;;;18.66;70.59
24440;BME280;12618;54.386;18.394;2023-08-08T15:32:49;98884.76;;;18.54;69.69
24440;BME280;12618;54.386;18.394;2023-08-08T15:35:20;98896.25;;;18.36;69.76
24440;BME280;12618;54.386;18.394;2023-08-08T15:37:52;98907.05;;;18.11;74.26
24440;BME280;12618;54.386;18.394;2023-08-08T15:40:25;98911.16;;;17.58;83.55
24440;BME280;12618;54.386;18.394;2023-08-08T15:42:57;98908.46;;;16.89;84.14
24440;BME280;12618;54.386;18.394;2023-08-08T15:45:29;98916.67;;;16.30;85.21
24440;BME280;12618;54.386;18.394;2023-08-08T15:48:00;98923.68;;;15.86;85.15
24440;BME280;12618;54.386;18.394;2023-08-08T15:50:32;98932.44;;;15.53;86.67
24440;BME280;12618;54.386;18.394;2023-08-08T15:53:04;98939.85;;;15.26;91.00
24440;BME280;12618;54.386;18.394;2023-08-08T15:55:37;98943.59;;;14.99;92.08
24440;BME280;12618;54.386;18.394;2023-08-08T15:58:08;98940.93;;;14.77;93.53
24440;BME280;12618;54.386;18.394;2023-08-08T16:00:40;98949.13;;;14.62;96.30
24440;BME280;12618;54.386;18.394;2023-08-08T16:03:12;98942.61;;;14.50;98.51
24440;BME280;12618;54.386;18.394;2023-08-08T16:05:44;98940.56;;;14.45;97.73
24440;BME280;12618;54.386;18.394;2023-08-08T16:08:15;98945.84;;;14.40;97.54
24440;BME280;12618;54.386;18.394;2023-08-08T16:10:49;98946.95;;;14.18;100.00
24440;BME280;12618;54.386;18.394;2023-08-08T16:13:22;98930.37;;;14.06;99.76
24440;BME280;12618;54.386;18.394;2023-08-08T16:15:53;98921.58;;;14.01;100.00
24440;BME280;12618;54.386;18.394;2023-08-08T16:18:25;98949.79;;;13.97;99.80
24440;BME280;12618;54.386;18.394;2023-08-08T16:20:56;98993.52;;;13.92;99.87
24440;BME280;12618;54.386;18.394;2023-08-08T16:23:28;99015.25;;;13.90;100.00
24440;BME280;12618;54.386;18.394;2023-08-08T16:26:00;99025.55;;;13.84;100.00
24440;BME280;12618;54.386;18.394;2023-08-08T16:28:31;99028.00;;;13.77;100.00
24440;BME280;12618;54.386;18.394;2023-08-08T16:31:03;99036.43;;;13.68;100.00
24440;BME280;12618;54.386;18.394;2023-08-08T16:33:35;99044.20;;;13.61;100.00
24440;BME280;12618;54.386;18.394;2023-08-08T16:36:07;99040.77;;;13.57;100.00
24440;BME280;12618;54.386;18.394;2023-08-08T16:38:40;99038.20;;;13.53;100.00
24440;BME280;12618;54.386;18.394;2023-08-08T16:41:12;99033.79;;;13.56;100.00
24440;BME280;12618;54.386;18.394;2023-08-08T16:43:43;99032.74;;;13.58;100.00
24440;BME280;12618;54.386;18.394;2023-08-08T16:46:15;99039.34;;;13.57;100.00
24440;BME280;12618;54.386;18.394;2023-08-08T16:48:47;99035.23;;;13.50;100.00
24440;BME280;12618;54.386;18.394;2023-08-08T16:51:19;99032.05;;;13.47;100.00
24440;BME280;12618;54.386;18.394;2023-08-08T16:53:50;99021.91;;;13.44;100.00
24440;BME280;12618;54.386;18.394;2023-08-08T16:56:22;99012.64;;;13.45;100.00
24440;BME280;12618;54.386;18.394;2023-08-08T16:58:54;99012.64;;;13.40;100.00
24440;BME280;12618;54.386;18.394;2023-08-08T17:01:25;99006.48;;;13.32;100.00
24440;BME280;12618;54.386;18.394;2023-08-08T17:03:57;98988.20;;;13.31;100.00
24440;BME280;12618;54.386;18.394;2023-08-08T17:06:29;98986.19;;;13.29;100.00
24440;BME280;12618;54.386;18.394;2023-08-08T17:09:02;98987.14;;;13.28;100.00
24440;BME280;12618;54.386;18.394;2023-08-08T17:11:34;98967.36;;;13.26;100.00
24440;BME280;12618;54.386;18.394;2023-08-08T17:14:05;98955.48;;;13.29;100.00
24440;BME280;12618;54.386;18.394;2023-08-08T17:16:37;98941.35;;;13.34;100.00
24440;BME280;12618;54.386;18.394;2023-08-08T17:19:09;98931.52;;;13.45;100.00
24440;BME280;12618;54.386;18.394;2023-08-08T17:21:41;98927.98;;;13.60;100.00
24440;BME280;12618;54.386;18.394;2023-08-08T17:24:13;98936.22;;;13.60;100.00
24440;BME280;12618;54.386;18.394;2023-08-08T17:26:48;98940.98;;;13.66;100.00
24440;BME280;12618;54.386;18.394;2023-08-08T17:29:20;98936.45;;;13.69;100.00
24440;BME280;12618;54.386;18.394;2023-08-08T17:31:52;98933.02;;;13.80;100.00
24440;BME280;12618;54.386;18.394;2023-08-08T17:34:24;98932.27;;;13.90;100.00
24440;BME280;12618;54.386;18.394;2023-08-08T17:36:56;98933.65;;;13.96;100.00
24440;BME280;12618;54.386;18.394;2023-08-08T17:39:28;98934.68;;;13.96;100.00
24440;BME280;12618;54.386;18.394;2023-08-08T17:42:00;98934.20;;;13.95;100.00
24440;BME280;12618;54.386;18.394;2023-08-08T17:44:33;98939.48;;;13.96;100.00
24440;BME280;12618;54.386;18.394;2023-08-08T17:47:04;98940.16;;;13.86;100.00
24440;BME280;12618;54.386;18.394;2023-08-08T17:49:38;98938.76;;;13.76;100.00
24440;BME280;12618;54.386;18.394;2023-08-08T17:52:10;98937.55;;;13.66;100.00
24440;BME280;12618;54.386;18.394;2023-08-08T17:54:42;98942.60;;;13.63;100.00
24440;BME280;12618;54.386;18.394;2023-08-08T17:57:14;98940.23;;;13.56;100.00
24440;BME280;12618;54.386;18.394;2023-08-08T17:59:48;98943.23;;;13.52;100.00
24440;BME280;12618;54.386;18.394;2023-08-08T18:02:20;98946.02;;;13.47;100.00
24440;BME280;12618;54.386;18.394;2023-08-08T18:04:52;98949.96;;;13.42;100.00
24440;BME280;12618;54.386;18.394;2023-08-08T18:07:24;98949.71;;;13.40;100.00
24440;BME280;12618;54.386;18.394;2023-08-08T18:09:56;98951.98;;;13.40;100.00
24440;BME280;12618;54.386;18.394;2023-08-08T18:12:27;98952.23;;;13.42;100.00
24440;BME280;12618;54.386;18.394;2023-08-08T18:14:59;98953.71;;;13.39;100.00
24440;BME280;12618;54.386;18.394;2023-08-08T18:17:31;98955.34;;;13.38;100.00
24440;BME280;12618;54.386;18.394;2023-08-08T18:20:03;98959.20;;;13.33;100.00
24440;BME280;12618;54.386;18.394;2023-08-08T18:22:38;98962.27;;;13.33;100.00
24440;BME280;12618;54.386;18.394;2023-08-08T18:25:10;98971.77;;;13.31;100.00
24440;BME280;12618;54.386;18.394;2023-08-08T18:27:42;98979.64;;;13.32;100.00
24440;BME280;12618;54.386;18.394;2023-08-08T18:30:16;98980.64;;;13.30;100.00
24440;BME280;12618;54.386;18.394;2023-08-08T18:32:48;98982.11;;;13.29;100.00
24440;BME280;12618;54.386;18.394;2023-08-08T18:35:19;98982.10;;;13.22;100.00
24440;BME280;12618;54.386;18.394;2023-08-08T18:37:51;98984.70;;;13.21;100.00
24440;BME280;12618;54.386;18.394;2023-08-08T18:40:23;98979.92;;;13.15;100.00
24440;BME280;12618;54.386;18.394;2023-08-08T18:42:56;98979.74;;;13.10;100.00
24440;BME280;12618;54.386;18.394;2023-08-08T18:45:27;98982.61;;;13.04;100.00
24440;BME280;12618;54.386;18.394;2023-08-08T18:47:59;98981.55;;;12.97;100.00
24440;BME280;12618;54.386;18.394;2023-08-08T18:50:31;98983.31;;;12.92;100.00
24440;BME280;12618;54.386;18.394;2023-08-08T18:53:03;98985.36;;;12.85;100.00
24440;BME280;12618;54.386;18.394;2023-08-08T18:55:37;98984.77;;;12.79;100.00
24440;BME280;12618;54.386;18.394;2023-08-08T18:58:09;98983.75;;;12.72;100.00
24440;BME280;12618;54.386;18.394;2023-08-08T19:00:40;98981.48;;;12.67;100.00
24440;BME280;12618;54.386;18.394;2023-08-08T19:03:13;98983.03;;;12.65;100.00
24440;BME280;12618;54.386;18.394;2023-08-08T19:05:45;98981.50;;;12.64;100.00
24440;BME280;12618;54.386;18.394;2023-08-08T19:08:17;98983.30;;;12.64;100.00
24440;BME280;12618;54.386;18.394;2023-08-08T19:10:49;98979.18;;;12.62;100.00
24440;BME280;12618;54.386;18.394;2023-08-08T19:13:21;98978.02;;;12.58;100.00
24440;BME280;12618;54.386;18.394;2023-08-08T19:15:55;98973.89;;;12.54;100.00
24440;BME280;12618;54.386;18.394;2023-08-08T19:18:27;98977.71;;;12.52;100.00
24440;BME280;12618;54.386;18.394;2023-08-08T19:20:59;98977.31;;;12.51;100.00
24440;BME280;12618;54.386;18.394;2023-08-08T19:23:31;98977.33;;;12.53;100.00
24440;BME280;12618;54.386;18.394;2023-08-08T19:26:03;98982.06;;;12.51;100.00
24440;BME280;12618;54.386;18.394;2023-08-08T19:28:34;98978.66;;;12.46;100.00
24440;BME280;12618;54.386;18.394;2023-08-08T19:31:06;98988.23;;;12.43;100.00
24440;BME280;12618;54.386;18.394;2023-08-08T19:33:39;98987.53;;;12.40;100.00
24440;BME280;12618;54.386;18.394;2023-08-08T19:36:22;98987.71;;;12.43;100.00
24440;BME280;12618;54.386;18.394;2023-08-08T19:38:54;98984.46;;;12.41;100.00
24440;BME280;12618;54.386;18.394;2023-08-08T19:41:25;98981.59;;;12.42;100.00
24440;BME280;12618;54.386;18.394;2023-08-08T19:43:57;98983.80;;;12.44;100.00
24440;BME280;12618;54.386;18.394;2023-08-08T19:46:29;98980.39;;;12.45;100.00
24440;BME280;12618;54.386;18.394;2023-08-08T19:49:01;98978.67;;;12.47;100.00
24440;BME280;12618;54.386;18.394;2023-08-08T19:51:34;98980.31;;;12.48;100.00
24440;BME280;12618;54.386;18.394;2023-08-08T19:54:08;98981.17;;;12.48;100.00
24440;BME280;12618;54.386;18.394;2023-08-08T19:56:40;98976.54;;;12.52;100.00
24440;BME280;12618;54.386;18.394;2023-08-08T19:59:12;98981.89;;;12.59;100.00
24440;BME280;12618;54.386;18.394;2023-08-08T20:01:44;98985.22;;;12.61;100.00
24440;BME280;12618;54.386;18.394;2023-08-08T20:04:16;98990.86;;;12.64;100.00
24440;BME280;12618;54.386;18.394;2023-08-08T20:06:47;98988.10;;;12.66;100.00
24440;BME280;12618;54.386;18.394;2023-08-08T20:09:19;98990.89;;;12.69;100.00
24440;BME280;12618;54.386;18.394;2023-08-08T20:11:51;98996.02;;;12.74;100.00
24440;BME280;12618;54.386;18.394;2023-08-08T20:14:23;98997.45;;;12.79;100.00
24440;BME280;12618;54.386;18.394;2023-08-08T20:16:55;99008.58;;;12.81;100.00
24440;BME280;12618;54.386;18.394;2023-08-08T20:19:29;99054.97;;;12.82;100.00
24440;BME280;12618;54.386;18.394;2023-08-08T20:22:02;99074.96;;;12.79;100.00
24440;BME280;12618;54.386;18.394;2023-08-08T20:24:34;99060.30;;;12.71;100.00
24440;BME280;12618;54.386;18.394;2023-08-08T20:27:06;99049.00;;;12.66;100.00
24440;BME280;12618;54.386;18.394;2023-08-08T20:29:38;99046.69;;;12.58;100.00
24440;BME280;12618;54.386;18.394;2023-08-08T20:32:10;99041.01;;;12.51;100.00
24440;BME280;12618;54.386;18.394;2023-08-08T20:34:44;99034.09;;;12.49;100.00
24440;BME280;12618;54.386;18.394;2023-08-08T20:37:15;99040.89;;;12.45;100.00
24440;BME280;12618;54.386;18.394;2023-08-08T20:39:49;99044.08;;;12.41;100.00
24440;BME280;12618;54.386;18.394;2023-08-08T20:42:21;99029.00;;;12.40;100.00
24440;BME280;12618;54.386;18.394;2023-08-08T20:44:52;99009.13;;;12.39;100.00
24440;BME280;12618;54.386;18.394;2023-08-08T20:47:24;98988.52;;;12.41;100.00
24440;BME280;12618;54.386;18.394;2023-08-08T20:49:56;98981.24;;;12.45;100.00
24440;BME280;12618;54.386;18.394;2023-08-08T20:52:27;98998.65;;;12.46;100.00
24440;BME280;12618;54.386;18.394;2023-08-08T20:54:59;98976.27;;;12.39;100.00
24440;BME280;12618;54.386;18.394;2023-08-08T20:57:31;98967.96;;;12.39;100.00
24440;BME280;12618;54.386;18.394;2023-08-08T21:00:03;98968.23;;;12.42;100.00
24440;BME280;12618;54.386;18.394;2023-08-08T21:02:36;98979.90;;;12.38;100.00
24440;BME280;12618;54.386;18.394;2023-08-08T21:05:08;98977.08;;;12.36;100.00
24440;BME280;12618;54.386;18.394;2023-08-08T21:07:39;98972.04;;;12.29;100.00
24440;BME280;12618;54.386;18.394;2023-08-08T21:10:11;98971.66;;;12.22;100.00
24440;BME280;12618;54.386;18.394;2023-08-08T21:12:45;98977.05;;;12.12;100.00
24440;BME280;12618;54.386;18.394;2023-08-08T21:15:17;98978.08;;;12.02;100.00
24440;BME280;12618;54.386;18.394;2023-08-08T21:17:49;98974.45;;;11.98;100.00
24440;BME280;12618;54.386;18.394;2023-08-08T21:20:20;98977.37;;;11.94;100.00
24440;BME280;12618;54.386;18.394;2023-08-08T21:22:52;98973.11;;;11.87;100.00
24440;BME280;12618;54.386;18.394;2023-08-08T21:25:24;98979.41;;;11.82;100.00
24440;BME280;12618;54.386;18.394;2023-08-08T21:27:57;98980.02;;;11.78;100.00
24440;BME280;12618;54.386;18.394;2023-08-08T21:30:28;98975.73;;;11.76;100.00
24440;BME280;12618;54.386;18.394;2023-08-08T21:33:00;98973.11;;;11.79;100.00
24440;BME280;12618;54.386;18.394;2023-08-08T21:35:32;98972.17;;;11.82;100.00
24440;BME280;12618;54.386;18.394;2023-08-08T21:38:03;98971.34;;;11.84;100.00
24440;BME280;12618;54.386;18.394;2023-08-08T21:40:36;98974.52;;;11.86;100.00
24440;BME280;12618;54.386;18.394;2023-08-08T21:43:07;98983.88;;;11.86;100.00
24440;BME280;12618;54.386;18.394;2023-08-08T21:45:39;98995.53;;;11.86;100.00
24440;BME280;12618;54.386;18.394;2023-08-08T21:48:10;98990.04;;;11.84;100.00
24440;BME280;12618;54.386;18.394;2023-08-08T21:50:44;98992.84;;;11.82;100.00
24440;BME280;12618;54.386;18.394;2023-08-08T21:53:18;98995.20;;;11.81;100.00
24440;BME280;12618;54.386;18.394;2023-08-08T21:55:51;98995.39;;;11.78;100.00
24440;BME280;12618;54.386;18.394;2023-08-08T21:58:22;98994.69;;;11.74;100.00
24440;BME280;12618;54.386;18.394;2023-08-08T22:00:58;98991.67;;;11.69;100.00
24440;BME280;12618;54.386;18.394;2023-08-08T22:03:29;98992.95;;;11.68;100.00
24440;BME280;12618;54.386;18.394;2023-08-08T22:06:01;98998.90;;;11.66;100.00
24440;BME280;12618;54.386;18.394;2023-08-08T22:08:33;99004.29;;;11.64;100.00
24440;BME280;12618;54.386;18.394;2023-08-08T22:11:05;99000.89;;;11.59;100.00
24440;BME280;12618;54.386;18.394;2023-08-08T22:13:36;98998.81;;;11.53;100.00
24440;BME280;12618;54.386;18.394;2023-08-08T22:16:08;99004.98;;;11.50;100.00
24440;BME280;12618;54.386;18.394;2023-08-08T22:18:40;99007.09;;;11.48;100.00
24440;BME280;12618;54.386;18.394;2023-08-08T22:21:13;99012.98;;;11.49;100.00
24440;BME280;12618;54.386;18.394;2023-08-08T22:23:44;99009.98;;;11.47;100.00
24440;BME280;12618;54.386;18.394;2023-08-08T22:26:16;99010.33;;;11.44;100.00
24440;BME280;12618;54.386;18.394;2023-08-08T22:28:48;99008.68;;;11.42;100.00
24440;BME280;12618;54.386;18.394;2023-08-08T22:31:19;99007.98;;;11.39;100.00
24440;BME280;12618;54.386;18.394;2023-08-08T22:33:51;99003.79;;;11.36;100.00
24440;BME280;12618;54.386;18.394;2023-08-08T22:36:23;99003.85;;;11.35;100.00
24440;BME280;12618;54.386;18.394;2023-08-08T22:38:55;99007.08;;;11.34;100.00
24440;BME280;12618;54.386;18.394;2023-08-08T22:41:26;99010.13;;;11.33;100.00
24440;BME280;12618;54.386;18.394;2023-08-08T22:44:01;99010.90;;;11.32;100.00
24440;BME280;12618;54.386;18.394;2023-08-08T22:46:32;99008.46;;;11.29;100.00
24440;BME280;12618;54.386;18.394;2023-08-08T22:49:04;99000.74;;;11.26;100.00
24440;BME280;12618;54.386;18.394;2023-08-08T22:51:36;99002.27;;;11.24;100.00
24440;BME280;12618;54.386;18.394;2023-08-08T22:54:08;99002.62;;;11.27;100.00
24440;BME280;12618;54.386;18.394;2023-08-08T22:56:40;99002.36;;;11.28;100.00
24440;BME280;12618;54.386;18.394;2023-08-08T22:59:12;98998.69;;;11.27;100.00
24440;BME280;12618;54.386;18.394;2023-08-08T23:01:44;98997.53;;;11.29;100.00
24440;BME280;12618;54.386;18.394;2023-08-08T23:04:15;98999.92;;;11.27;100.00
24440;BME280;12618;54.386;18.394;2023-08-08T23:06:49;99003.94;;;11.25;100.00
24440;BME280;12618;54.386;18.394;2023-08-08T23:09:21;99005.64;;;11.23;100.00
24440;BME280;12618;54.386;18.394;2023-08-08T23:11:53;99002.21;;;11.25;100.00
24440;BME280;12618;54.386;18.394;2023-08-08T23:14:26;99005.17;;;11.25;100.00
24440;BME280;12618;54.386;18.394;2023-08-08T23:16:58;99002.25;;;11.24;100.00
24440;BME280;12618;54.386;18.394;2023-08-08T23:19:30;99005.83;;;11.23;100.00
24440;BME280;12618;54.386;18.394;2023-08-08T23:22:02;99003.09;;;11.22;100.00
24440;BME280;12618;54.386;18.394;2023-08-08T23:24:36;99009.94;;;11.19;100.00
24440;BME280;12618;54.386;18.394;2023-08-08T23:27:08;99009.06;;;11.16;100.00
24440;BME280;12618;54.386;18.394;2023-08-08T23:29:40;99009.10;;;11.13;100.00
24440;BME280;12618;54.386;18.394;2023-08-08T23:32:11;99009.20;;;11.12;100.00
24440;BME280;12618;54.386;18.394;2023-08-08T23:34:43;99014.98;;;11.09;100.00
24440;BME280;12618;54.386;18.394;2023-08-08T23:37:15;99016.84;;;11.07;100.00
24440;BME280;12618;54.386;18.394;2023-08-08T23:39:51;99019.90;;;11.06;100.00
24440;BME280;12618;54.386;18.394;2023-08-08T23:42:23;99025.03;;;11.06;100.00
24440;BME280;12618;54.386;18.394;2023-08-08T23:44:54;99032.82;;;11.05;100.00
24440;BME280;12618;54.386;18.394;2023-08-08T23:47:26;99033.03;;;11.05;100.00
24440;BME280;12618;54.386;18.394;2023-08-08T23:49:59;99030.31;;;11.03;100.00
24440;BME280;12618;54.386;18.394;2023-08-08T23:52:30;99030.77;;;11.02;100.00
24440;BME280;12618;54.386;18.394;2023-08-08T23:55:02;99034.81;;;11.02;100.00
24440;BME280;12618;54.386;18.394;2023-08-08T23:57:34;99037.86;;;11.01;100.00
